Meteo Giornale » Osservazioni meteo Stati Uniti (USA) » Longmont

ore: 13:55 - Osservazioni Meteo Longmont
Lat. 40° 10' N Lon. 105° 10' W Alt. 1541 metri s.l.m.

nuvoloso

30 °C

Nuvoloso

Temp. 24 Ore

15 °C

30 °C

Nord-Ovest

7.4 Km/h

Dew point 5 °C

Umidità 20 %

Visibilità  10 Km

Il sole sorge alle ore 06:28

Il sole tramonta alle ore 19:32

Data e Ora Cielo e Fenomeni T °C DP °C Um. % Pres. hPa Vis. km Vento km/h
Oggi h: 13:55 nuvoloso Nuvoloso 30 5 20 1018 10 NO 7.4
Oggi h: 13:35 molto_nuvoloso Molto Nuvoloso 30 5 20 1019 10 S 9.3
Oggi h: 13:15 nuvoloso Nuvoloso 29 5 21 1019 10 S/SO 11.1
Oggi h: 12:55 sereno Sereno 30 5 20 1019 10 O/SO 24
Oggi h: 12:35 sereno Sereno 29 6 23 1019 10 S/SO 7.4
Oggi h: 12:15 sereno Sereno 28 7 26 1019 10 S/SO 9.3
Oggi h: 11:55 sereno Sereno 28 8 28 1020 10 S/SE 11.1
Oggi h: 11:35 sereno Sereno 26 12 41 1020 10 E/SE 11.1
Oggi h: 11:15 sereno Sereno 25 13 47 1020 11 E/SE 9.3
Oggi h: 10:55 sereno Sereno 24 13 50 1020 11 E/NE 7.4
Oggi h: 10:35 sereno Sereno 22 13 56 1020 10 N 0
Oggi h: 10:15 sereno Sereno 21 14 64 1020 10 E/NE 7.4
Oggi h: 09:55 sereno Sereno 20 13 64 1021 10 N 0
Oggi h: 09:35 sereno Sereno 19 13 68 1021 10 N 0
Oggi h: 09:15 sereno Sereno 18 14 77 1021 10 N 0
Oggi h: 08:55 sereno Sereno 17 14 82 1021 11 N 0
Oggi h: 08:35 sereno Sereno 17 14 82 1021 11 N 0
Oggi h: 08:15 sereno Sereno 16 14 87 1021 11 N 0
Oggi h: 07:55 sereno Sereno 16 13 82 1021 11 N 0
Oggi h: 07:35 sereno Sereno 15 13 87 1021 11 N 0
Oggi h: 07:15 sereno Sereno 15 13 87 1020 10 N 0
Oggi h: 06:55 foschia Foschia 15 13 87 1020 8 N 0
Oggi h: 06:35 sereno Sereno 15 13 87 1020 11 N 0
Oggi h: 06:15 sereno Sereno 15 13 87 1019 11 N 0
Oggi h: 05:55 sereno Sereno 15 13 87 1020 11 N 0
Oggi h: 05:35 sereno Sereno 15 14 93 1020 10 N 0
Oggi h: 05:15 sereno Sereno 15 13 87 1020 10 N 5.5
Oggi h: 04:55 sereno Sereno 15 14 93 1020 10 N 5.5
Oggi h: 04:35 sereno Sereno 16 14 87 1020 10 N 0
Oggi h: 04:15 sereno Sereno 16 14 87 1020 11 N 0
Oggi h: 03:55 molto_nuvoloso Molto Nuvoloso 16 15 93 1020 11 N 0
Oggi h: 03:35 coperto Coperto 17 15 88 1020 10 N 0
Oggi h: 03:15 molto_nuvoloso Molto Nuvoloso 16 14 87 1021 11 N 0
Oggi h: 02:55 nuvoloso Nuvoloso 17 14 82 1021 10 N 0
Oggi h: 02:35 nuvoloso Nuvoloso 17 15 88 1021 10 N 5.5
Oggi h: 02:15 coperto Coperto 16 15 93 1021 10 N 0
Oggi h: 01:55 coperto Coperto 17 15 88 1021 11 N 0
Oggi h: 01:35 coperto Coperto 17 15 88 1022 10 N 0
Oggi h: 01:15 coperto Coperto 17 16 93 1022 11 N 0
Oggi h: 00:55 molto_nuvoloso Molto Nuvoloso 17 15 88 1022 11 N 0
Oggi h: 00:35 coperto_pioggia Pioviggine 18 15 82 1021 10 N 0
Oggi h: 00:15 coperto Coperto 17 15 88 1021 11 N 5.5
Ieri h: 23:55 foschia Foschia 18 15 82 1021 8 N 0
Ieri h: 23:35 nuvoloso Nuvoloso 17 15 88 1021 10 N 0
Ieri h: 23:15 nuvoloso Nuvoloso 17 14 82 1022 11 N 0
Ieri h: 22:55 nuvoloso Nuvoloso 17 15 88 1021 10 O/SO 7.4
Ieri h: 22:35 nuvoloso Nuvoloso 17 15 88 1021 11 O 7.4
Ieri h: 22:15 coperto_pioggia Pioggia 18 15 82 1021 10 N/NE 7.4
Ieri h: 21:55 coperto_pioggia Pioviggine 18 15 82 1022 10 N/NO 7.4
Ieri h: 21:35 coperto_pioggia Pioggia 18 14 77 1023 10 N 0
Ieri h: 21:15 coperto_pioggia Pioggia 18 14 77 1023 10 S 11.1
Ieri h: 20:55 coperto Coperto 22 11 49 1022 10 S/SO 22.2
Ieri h: 20:35 coperto Coperto 21 11 52 1021 11 N 0
Ieri h: 20:15 molto_nuvoloso Molto Nuvoloso 21 11 52 1020 10 N 0
Ieri h: 19:55 sereno Sereno 21 11 52 1020 10 N 0
Ieri h: 19:35 nuvoloso Nuvoloso 22 11 49 1020 10 NO 22.2
Ieri h: 19:15 coperto_pioggia Pioggia 23 10 43 1020 11 NO 16.7
Ieri h: 18:55 coperto Coperto 24 9 38 1020 10 O 18.5
Ieri h: 18:35 molto_nuvoloso Molto Nuvoloso 25 8 33 1020 10 O/NO 11.1
Ieri h: 18:15 nuvoloso Nuvoloso 25 8 33 1019 10 O/NO 18.5
Ieri h: 17:55 nuvoloso Nuvoloso 27 8 30 1019 10 NO 11.1
Ieri h: 17:35 molto_nuvoloso Molto Nuvoloso 29 7 25 1019 10 O 7.4
Ieri h: 17:15 molto_nuvoloso Molto Nuvoloso 28 7 26 1019 10 O/NO 7.4
Ieri h: 16:55 nuvoloso Nuvoloso 28 7 26 1019 10 N 0
Ieri h: 16:35 sereno Sereno 28 6 24 1020 10 S 7.4
Ieri h: 16:15 sereno Sereno 28 7 26 1020 10 S 7.4
Ieri h: 15:55 sereno Sereno 28 7 26 1020 10 S/SE 9.3
Ieri h: 15:35 sereno Sereno 29 7 25 1020 11 SE 7.4
Ieri h: 15:15 sereno Sereno 28 7 26 1020 11 N 5.5
Ieri h: 14:55 sereno Sereno 28 8 28 1020 10 N 0
Ieri h: 14:35 nuvoloso Nuvoloso 28 8 28 1021 10 N 5.5